Terminal Aerodrome Forecast
Issued by NWS Buffalo, NY

Home | Current Version | Previous Version | Text Only | Print | Product List | Glossary On
Versions: 1 2 3 4 5 6 7 8 9 10 11 12 13 14 15 16 17 18 19 20 21 22 23 24 25
000
FTUS41 KBUF 211744
TAFART
TAF
KART 211744Z 2118/2218 25011KT 5SM -RA BR OVC003
     FM211900 27009KT P6SM -RA SCT003 OVC015
     FM212000 27009KT P6SM OVC025
     FM212100 27009KT P6SM BKN035
     FM220100 30006KT P6SM BKN250
     FM220400 36005KT P6SM SCT250
     FM220900 04005KT P6SM BKN150=

USA.gov is the U.S. government's official web portal to all federal, state and local government web resources and services.